createdAt,value
2023-02-02T00:02:29.569Z,4.92
2023-02-02T00:05:22.713Z,4.98
2023-02-02T00:08:15.969Z,5.08
2023-02-02T00:11:09.059Z,5.20
2023-02-02T00:14:02.187Z,5.33
2023-02-02T00:16:55.620Z,5.41
2023-02-02T00:19:49.068Z,5.46
2023-02-02T00:22:41.809Z,5.44
2023-02-02T00:25:34.907Z,5.45
2023-02-02T00:28:27.648Z,5.46
2023-02-02T00:31:13.908Z,5.49
2023-02-02T00:34:06.791Z,5.57
2023-02-02T00:37:00.148Z,5.60
2023-02-02T00:39:53.149Z,5.55
2023-02-02T00:42:50.540Z,5.47
2023-02-02T00:45:43.397Z,5.42
2023-02-02T00:48:36.442Z,5.37
2023-02-02T00:51:29.246Z,5.37
2023-02-02T00:54:22.903Z,5.36
2023-02-02T00:57:17.396Z,5.31
2023-02-02T01:00:15.281Z,5.23
2023-02-02T01:03:08.248Z,5.31
2023-02-02T01:06:01.032Z,5.40
2023-02-02T01:08:53.855Z,5.39
2023-02-02T01:11:46.702Z,5.35
2023-02-02T01:14:39.448Z,5.30
2023-02-02T01:17:32.385Z,5.20
2023-02-02T01:20:25.944Z,5.45
2023-02-02T01:23:18.896Z,5.70
2023-02-02T01:26:13.964Z,6.27
2023-02-02T01:29:07.473Z,6.82
2023-02-02T01:32:00.872Z,6.85
2023-02-02T01:34:53.070Z,6.56
2023-02-02T01:37:45.989Z,6.36
2023-02-02T01:40:38.894Z,6.01
2023-02-02T01:43:52.809Z,5.70
2023-02-02T01:46:46.786Z,5.32
2023-02-02T01:49:41.530Z,5.05
2023-02-02T01:52:37.133Z,4.85
2023-02-02T01:55:32.900Z,4.67
2023-02-02T01:58:27.390Z,4.53
2023-02-02T02:01:20.364Z,4.46
2023-02-02T02:04:13.672Z,4.37
2023-02-02T02:07:02.357Z,4.34
2023-02-02T02:09:55.448Z,4.95
2023-02-02T02:12:49.021Z,5.68
2023-02-02T02:16:20.146Z,6.54
2023-02-02T02:19:27.308Z,6.96
2023-02-02T02:22:39.817Z,6.89
2023-02-02T02:26:16.416Z,6.56
2023-02-02T02:29:35.909Z,6.43
2023-02-02T02:32:37.932Z,6.67
2023-02-02T02:35:38.431Z,6.61
2023-02-02T02:38:40.186Z,6.36
2023-02-02T02:41:39.423Z,5.91
2023-02-02T02:44:33.750Z,5.59
2023-02-02T02:47:27.242Z,5.37
2023-02-02T02:50:20.607Z,5.45
2023-02-02T02:53:17.247Z,6.25
2023-02-02T02:56:18.815Z,6.92
2023-02-02T02:59:19.797Z,7.33
2023-02-02T03:02:41.271Z,7.34
2023-02-02T03:05:43.192Z,7.22
2023-02-02T03:08:41.689Z,7.24
2023-02-02T03:11:35.686Z,7.25
2023-02-02T03:14:28.887Z,7.34
2023-02-02T03:17:21.968Z,7.37
2023-02-02T03:20:06.552Z,7.15
2023-02-02T03:22:59.444Z,6.97
2023-02-02T03:25:52.411Z,7.03
2023-02-02T03:28:38.542Z,6.95
2023-02-02T03:31:32.317Z,6.91
2023-02-02T03:34:25.435Z,7.11
2023-02-02T03:37:19.856Z,7.34
2023-02-02T03:40:14.918Z,7.40
2023-02-02T03:43:08.239Z,7.02
2023-02-02T03:46:04.533Z,6.84
2023-02-02T03:48:50.137Z,6.73
2023-02-02T03:51:44.524Z,6.64
2023-02-02T03:54:38.459Z,6.55
2023-02-02T03:57:31.476Z,6.59
2023-02-02T04:00:26.620Z,6.88
2023-02-02T04:03:19.721Z,7.30
2023-02-02T04:06:14.544Z,7.55
2023-02-02T04:09:07.496Z,7.61
2023-02-02T04:12:03.451Z,7.60
2023-02-02T04:14:56.369Z,7.76
2023-02-02T04:17:51.006Z,7.84
2023-02-02T04:20:43.985Z,7.79
2023-02-02T04:23:37.276Z,7.53
2023-02-02T04:26:30.445Z,7.23
2023-02-02T04:29:23.696Z,7.20
2023-02-02T04:32:17.661Z,7.38
2023-02-02T04:35:12.084Z,7.53
2023-02-02T04:38:05.210Z,7.67
2023-02-02T04:40:59.329Z,7.66
2023-02-02T04:43:52.440Z,7.62
2023-02-02T04:46:47.343Z,7.41
2023-02-02T04:49:40.145Z,6.97
2023-02-02T04:52:35.426Z,6.78
2023-02-02T04:55:18.441Z,6.68
2023-02-02T04:58:11.658Z,6.60
2023-02-02T05:01:11.847Z,6.50
2023-02-02T05:03:54.231Z,6.27
2023-02-02T05:06:47.449Z,6.37
2023-02-02T05:09:42.088Z,6.66
2023-02-02T05:12:35.061Z,6.47
2023-02-02T05:15:28.076Z,6.82
2023-02-02T05:18:22.203Z,7.45
2023-02-02T05:21:15.180Z,7.55
2023-02-02T05:24:08.549Z,7.28
2023-02-02T05:27:01.719Z,6.81
2023-02-02T05:29:54.520Z,6.31
2023-02-02T05:32:47.476Z,5.98
2023-02-02T05:35:39.425Z,5.75
2023-02-02T05:38:32.680Z,5.59
2023-02-02T05:41:25.961Z,5.48
2023-02-02T05:44:19.643Z,5.34
2023-02-02T05:47:14.210Z,5.26
2023-02-02T05:50:08.225Z,5.21
2023-02-02T05:53:02.952Z,5.12
2023-02-02T05:55:55.984Z,5.04
2023-02-02T05:58:50.622Z,5.04
2023-02-02T06:01:43.479Z,5.10
2023-02-02T06:04:38.975Z,5.11
2023-02-02T06:07:32.195Z,5.18
2023-02-02T06:10:26.891Z,5.12
2023-02-02T06:13:19.671Z,5.11
2023-02-02T06:16:13.947Z,5.07
2023-02-02T06:19:06.732Z,5.04
2023-02-02T06:21:59.675Z,5.02
2023-02-02T06:24:53.633Z,5.15
2023-02-02T06:27:46.589Z,5.69
2023-02-02T06:30:27.224Z,6.07
2023-02-02T06:33:20.337Z,6.14
2023-02-02T06:36:13.514Z,6.21
2023-02-02T06:39:00.609Z,6.50
2023-02-02T06:41:53.724Z,6.73
2023-02-02T06:44:46.600Z,6.52
2023-02-02T06:47:39.343Z,6.37
2023-02-02T06:50:32.478Z,6.17
2023-02-02T06:53:26.848Z,6.20
2023-02-02T06:56:19.995Z,6.85
2023-02-02T06:59:13.148Z,7.47
2023-02-02T07:02:06.022Z,7.66
2023-02-02T07:04:57.954Z,7.89
2023-02-02T07:07:53.772Z,8.23
2023-02-02T07:11:12.718Z,8.26
2023-02-02T07:13:51.443Z,8.26
2023-02-02T07:16:44.169Z,8.32
2023-02-02T07:19:31.428Z,8.44
2023-02-02T07:22:24.252Z,8.18
2023-02-02T07:25:17.130Z,8.08
2023-02-02T07:28:00.290Z,7.95
2023-02-02T07:30:43.137Z,7.82
2023-02-02T07:33:40.212Z,8.28
2023-02-02T07:36:27.535Z,8.54
2023-02-02T07:39:10.394Z,8.54
2023-02-02T07:41:53.532Z,8.71
2023-02-02T07:44:49.266Z,8.62
2023-02-02T07:47:43.280Z,7.43
2023-02-02T07:50:36.718Z,6.38
2023-02-02T07:53:30.998Z,5.61
2023-02-02T07:56:15.493Z,5.34
2023-02-02T07:59:07.045Z,5.88
2023-02-02T08:01:58.536Z,6.19
2023-02-02T08:04:43.978Z,6.43
2023-02-02T08:07:38.714Z,6.47
2023-02-02T08:10:31.593Z,6.54
2023-02-02T08:13:25.341Z,6.57
2023-02-02T08:16:17.678Z,6.67
2023-02-02T08:19:11.051Z,6.74
2023-02-02T08:22:04.772Z,7.08
2023-02-02T08:24:48.198Z,7.29
2023-02-02T08:27:35.232Z,7.35
2023-02-02T08:30:29.784Z,7.26
2023-02-02T08:33:22.628Z,7.25
2023-02-02T08:36:06.068Z,7.34
2023-02-02T08:39:02.979Z,7.33
2023-02-02T08:41:59.782Z,7.33
2023-02-02T08:46:12.727Z,7.34
2023-02-02T08:48:10.710Z,7.40
2023-02-02T08:50:59.217Z,7.44
2023-02-02T08:53:51.747Z,7.49
2023-02-02T08:56:44.645Z,7.57
2023-02-02T08:59:38.009Z,7.65
2023-02-02T09:02:23.291Z,7.82
2023-02-02T09:05:16.179Z,7.99
2023-02-02T09:08:09.082Z,8.08
2023-02-02T09:11:06.264Z,8.10
2023-02-02T09:14:02.294Z,8.14
2023-02-02T09:16:56.535Z,8.12
2023-02-02T09:19:39.429Z,8.09
2023-02-02T09:22:24.843Z,7.95
2023-02-02T09:25:18.028Z,7.87
2023-02-02T09:28:11.013Z,7.89
2023-02-02T09:30:56.602Z,7.84
2023-02-02T09:33:42.611Z,7.64
2023-02-02T09:36:27.030Z,7.54
2023-02-02T09:39:29.527Z,7.48
2023-02-02T09:42:42.941Z,7.43
2023-02-02T09:45:47.544Z,7.30
2023-02-02T09:48:52.282Z,7.16
2023-02-02T09:51:50.814Z,7.03
2023-02-02T09:54:49.682Z,6.89
2023-02-02T09:57:47.525Z,6.78
2023-02-02T10:00:45.688Z,6.77
2023-02-02T10:03:45.465Z,6.80
2023-02-02T10:06:38.689Z,6.98
2023-02-02T10:09:41.266Z,7.08
2023-02-02T10:12:47.952Z,6.98
2023-02-02T10:15:45.223Z,6.76
2023-02-02T10:18:46.157Z,6.59
2023-02-02T10:21:46.848Z,6.51
2023-02-02T10:24:40.173Z,6.43
2023-02-02T10:27:39.592Z,6.54
2023-02-02T10:30:45.866Z,6.69
2023-02-02T10:33:41.018Z,6.65
2023-02-02T10:36:36.019Z,6.63
2023-02-02T10:39:41.807Z,6.80
2023-02-02T10:43:06.937Z,7.07
2023-02-02T10:45:55.995Z,7.02
2023-02-02T10:48:37.394Z,6.85
2023-02-02T10:51:31.289Z,6.63
2023-02-02T10:54:54.962Z,6.51
2023-02-02T10:57:59.420Z,6.27
2023-02-02T11:00:54.508Z,6.08
2023-02-02T11:03:47.892Z,5.88
2023-02-02T11:06:50.914Z,5.75
2023-02-02T11:09:45.631Z,5.65
2023-02-02T11:12:41.305Z,5.62
2023-02-02T11:15:33.625Z,5.61
2023-02-02T11:18:33.396Z,5.58
2023-02-02T11:21:28.692Z,5.60
2023-02-02T11:24:25.949Z,5.73
2023-02-02T11:27:26.137Z,5.63
2023-02-02T11:30:29.100Z,5.54
2023-02-02T11:33:28.914Z,5.42
2023-02-02T11:36:23.655Z,5.21
2023-02-02T11:39:22.885Z,4.99
2023-02-02T11:42:21.438Z,4.83
2023-02-02T11:45:21.387Z,4.70
2023-02-02T11:48:20.436Z,4.80
2023-02-02T11:51:25.864Z,5.42
2023-02-02T11:54:25.149Z,5.90
2023-02-02T11:57:22.753Z,6.58
2023-02-02T12:00:28.816Z,7.08
2023-02-02T12:03:33.217Z,7.51
2023-02-02T12:06:23.699Z,7.83
2023-02-02T12:09:22.526Z,8.12
2023-02-02T12:12:43.945Z,8.33
2023-02-02T12:15:47.786Z,8.31
2023-02-02T12:18:55.674Z,8.25
2023-02-02T12:21:50.619Z,8.25
2023-02-02T12:24:52.523Z,8.17
2023-02-02T12:27:57.472Z,8.16
2023-02-02T12:31:00.002Z,8.00
2023-02-02T12:34:02.319Z,7.77
2023-02-02T12:37:04.463Z,7.79
2023-02-02T12:40:17.701Z,7.79
2023-02-02T12:43:22.954Z,7.79
2023-02-02T12:46:40.707Z,7.75
2023-02-02T12:49:54.624Z,7.54
2023-02-02T12:53:08.819Z,7.58
2023-02-02T12:56:16.670Z,7.75
2023-02-02T12:59:19.836Z,8.04
2023-02-02T13:02:07.490Z,8.21
2023-02-02T13:05:14.532Z,8.21
2023-02-02T13:08:10.973Z,8.41
2023-02-02T13:11:31.064Z,8.53
2023-02-02T13:14:29.032Z,8.40
2023-02-02T13:17:27.282Z,8.35
2023-02-02T13:20:33.187Z,8.46
2023-02-02T13:23:30.306Z,8.46
2023-02-02T13:26:14.197Z,8.34
2023-02-02T13:29:03.662Z,8.17
2023-02-02T13:32:01.878Z,8.05
2023-02-02T13:34:58.555Z,7.95
2023-02-02T13:38:00.736Z,7.94
2023-02-02T13:40:56.305Z,8.12
2023-02-02T13:43:58.398Z,8.29
2023-02-02T13:46:58.086Z,8.36
2023-02-02T13:49:54.857Z,8.33
2023-02-02T13:53:10.671Z,8.19
2023-02-02T13:56:25.625Z,8.01
2023-02-02T13:59:37.100Z,7.82
2023-02-02T14:02:39.828Z,7.91
2023-02-02T14:05:36.103Z,8.05
2023-02-02T14:08:30.879Z,8.14
2023-02-02T14:11:28.729Z,8.02
2023-02-02T14:14:35.330Z,7.86
2023-02-02T14:17:56.375Z,7.60
2023-02-02T14:20:52.693Z,7.22
2023-02-02T14:23:56.451Z,7.16
2023-02-02T14:26:54.436Z,7.09
2023-02-02T14:30:17.751Z,7.22
2023-02-02T14:33:47.584Z,7.58
2023-02-02T14:36:52.986Z,7.76
2023-02-02T14:39:59.105Z,8.15
2023-02-02T14:43:25.629Z,8.39
2023-02-02T14:46:37.826Z,8.52
2023-02-02T14:49:39.207Z,8.51
2023-02-02T14:52:34.735Z,8.54
2023-02-02T14:55:30.377Z,8.49
2023-02-02T14:58:26.303Z,8.63
2023-02-02T15:01:24.859Z,8.75
2023-02-02T15:04:28.289Z,8.96
2023-02-02T15:07:40.266Z,9.09
2023-02-02T15:11:22.616Z,9.04
2023-02-02T15:14:10.748Z,8.53
2023-02-02T15:16:59.437Z,8.23
2023-02-02T15:19:57.492Z,7.97
2023-02-02T15:22:52.353Z,7.69
2023-02-02T15:25:49.259Z,7.41
2023-02-02T15:28:49.678Z,7.26
2023-02-02T15:31:47.721Z,7.16
2023-02-02T15:34:48.789Z,7.10
2023-02-02T15:37:45.843Z,7.41
2023-02-02T15:40:40.943Z,7.39
2023-02-02T15:43:30.126Z,7.14
2023-02-02T15:46:26.542Z,6.89
2023-02-02T15:49:36.039Z,6.81
2023-02-02T15:52:33.178Z,7.52
2023-02-02T15:55:27.190Z,8.07
2023-02-02T15:58:29.144Z,7.82
2023-02-02T16:01:25.552Z,7.18
2023-02-02T16:04:22.458Z,6.70
2023-02-02T16:07:22.270Z,6.44
2023-02-02T16:10:23.859Z,6.26
2023-02-02T16:13:26.795Z,6.12
2023-02-02T16:16:29.113Z,5.94
2023-02-02T16:19:25.220Z,5.76
2023-02-02T16:22:21.319Z,5.70
2023-02-02T16:25:23.421Z,5.58
2023-02-02T16:28:18.736Z,5.57
2023-02-02T16:31:07.822Z,5.65
2023-02-02T16:34:02.793Z,5.51
2023-02-02T16:37:17.872Z,5.38
2023-02-02T16:40:29.810Z,5.24
2023-02-02T16:43:29.534Z,5.21
2023-02-02T16:46:45.720Z,5.19
2023-02-02T16:49:30.231Z,5.13
2023-02-02T16:52:24.543Z,5.02
2023-02-02T16:55:14.698Z,4.96
2023-02-02T16:58:07.562Z,4.94
2023-02-02T17:01:14.165Z,4.92
2023-02-02T17:04:17.517Z,4.87
2023-02-02T17:07:11.772Z,4.85
2023-02-02T17:10:14.044Z,4.78
2023-02-02T17:13:01.643Z,4.73
2023-02-02T17:15:54.814Z,4.71
2023-02-02T17:18:48.134Z,4.74
2023-02-02T17:21:41.193Z,4.77
2023-02-02T17:24:27.265Z,4.80
2023-02-02T17:27:03.627Z,4.74
2023-02-02T17:30:01.155Z,4.66
2023-02-02T17:32:54.297Z,4.56
2023-02-02T17:35:55.730Z,4.48
2023-02-02T17:38:40.806Z,4.44
2023-02-02T17:41:16.984Z,4.36
2023-02-02T17:43:49.771Z,4.35
2023-02-02T17:46:35.216Z,4.29
2023-02-02T17:49:28.070Z,4.19
2023-02-02T17:52:11.091Z,4.11
2023-02-02T17:54:52.007Z,4.00
2023-02-02T17:57:27.780Z,3.92
2023-02-02T18:00:23.427Z,3.89
2023-02-02T18:03:19.447Z,3.82
2023-02-02T18:06:00.669Z,3.78
2023-02-02T18:08:45.689Z,3.76
2023-02-02T18:11:38.880Z,3.74
2023-02-02T18:14:14.600Z,3.78
2023-02-02T18:16:47.409Z,3.82
2023-02-02T18:19:33.161Z,3.79
2023-02-02T18:22:18.685Z,3.74
2023-02-02T18:25:12.209Z,3.73
2023-02-02T18:27:57.832Z,3.72
2023-02-02T18:30:30.617Z,3.72
2023-02-02T18:33:03.451Z,3.72
2023-02-02T18:35:42.084Z,3.71
2023-02-02T18:38:19.720Z,3.69
2023-02-02T18:40:59.079Z,3.65
2023-02-02T18:43:32.485Z,3.61
2023-02-02T18:46:10.358Z,3.59
2023-02-02T18:48:48.387Z,3.55
2023-02-02T18:51:22.159Z,3.69
2023-02-02T18:54:00.405Z,3.76
2023-02-02T18:56:33.495Z,3.76
2023-02-02T18:59:06.946Z,3.76
2023-02-02T19:02:02.611Z,3.77
2023-02-02T19:04:37.113Z,3.79
2023-02-02T19:07:30.706Z,3.83
2023-02-02T19:10:14.202Z,3.84
2023-02-02T19:12:53.155Z,3.85
2023-02-02T19:15:47.244Z,3.82
2023-02-02T19:18:40.018Z,3.77
2023-02-02T19:21:20.238Z,3.71
2023-02-02T19:24:15.925Z,3.64
2023-02-02T19:26:54.096Z,3.60
2023-02-02T19:29:41.309Z,3.63
2023-02-02T19:32:27.020Z,3.65
2023-02-02T19:35:24.551Z,3.69
2023-02-02T19:38:07.779Z,3.74
2023-02-02T19:40:43.597Z,3.77
2023-02-02T19:43:37.182Z,3.81
2023-02-02T19:46:34.289Z,3.83
2023-02-02T19:49:16.224Z,3.86
2023-02-02T19:52:03.879Z,3.90
2023-02-02T19:54:57.040Z,3.91
2023-02-02T19:57:50.171Z,3.96
2023-02-02T20:00:44.998Z,4.02
2023-02-02T20:03:46.616Z,4.03
2023-02-02T20:06:27.026Z,4.09
2023-02-02T20:09:15.419Z,4.11
2023-02-02T20:12:23.564Z,4.14
2023-02-02T20:14:58.686Z,4.18
2023-02-02T20:17:34.566Z,4.21
2023-02-02T20:20:30.010Z,4.23
2023-02-02T20:23:04.282Z,4.26
2023-02-02T20:25:41.674Z,4.23
2023-02-02T20:28:32.704Z,4.25
2023-02-02T20:31:18.347Z,4.20
2023-02-02T20:33:53.375Z,4.16
2023-02-02T20:36:39.288Z,4.14
2023-02-02T20:39:36.812Z,4.16
2023-02-02T20:42:20.921Z,4.18
2023-02-02T20:44:58.308Z,4.21
2023-02-02T20:47:52.482Z,4.26
2023-02-02T20:50:31.335Z,4.28
2023-02-02T20:53:10.099Z,4.32
2023-02-02T20:55:47.320Z,4.32
2023-02-02T20:58:33.065Z,4.33
2023-02-02T21:01:26.287Z,4.35
2023-02-02T21:04:21.339Z,4.30
2023-02-02T21:07:14.237Z,4.31
2023-02-02T21:10:07.977Z,4.33
2023-02-02T21:13:00.769Z,4.34
2023-02-02T21:15:53.514Z,4.33
2023-02-02T21:18:47.362Z,4.37
2023-02-02T21:21:40.472Z,4.38
2023-02-02T21:24:33.439Z,4.33
2023-02-02T21:27:26.246Z,4.25
2023-02-02T21:30:03.755Z,4.16
2023-02-02T21:32:58.174Z,4.12
2023-02-02T21:35:51.038Z,4.11
2023-02-02T21:38:45.238Z,4.11
2023-02-02T21:41:38.507Z,4.09
2023-02-02T21:44:27.615Z,4.06
2023-02-02T21:47:29.916Z,4.04
2023-02-02T21:50:21.376Z,4.00
2023-02-02T21:53:22.202Z,3.99
2023-02-02T21:56:33.519Z,3.96
2023-02-02T21:59:31.108Z,3.87
2023-02-02T22:02:45.317Z,3.88
2023-02-02T22:05:39.062Z,3.89
2023-02-02T22:08:36.707Z,3.93
2023-02-02T22:11:31.269Z,3.95
2023-02-02T22:14:21.773Z,3.94
2023-02-02T22:17:23.133Z,3.96
2023-02-02T22:20:30.833Z,3.92
2023-02-02T22:23:04.722Z,3.88
2023-02-02T22:25:59.291Z,3.90
2023-02-02T22:28:52.178Z,3.89
2023-02-02T22:31:44.985Z,3.87
2023-02-02T22:34:30.924Z,3.86
2023-02-02T22:37:23.819Z,3.88
2023-02-02T22:40:22.692Z,3.86
2023-02-02T22:43:16.371Z,3.84
2023-02-02T22:46:09.315Z,3.81
2023-02-02T22:49:00.976Z,3.83
2023-02-02T22:51:46.132Z,4.01
2023-02-02T22:54:38.900Z,4.33
2023-02-02T22:57:32.247Z,4.70
2023-02-02T23:00:28.067Z,4.57
2023-02-02T23:03:21.143Z,4.41
2023-02-02T23:06:14.126Z,5.04
2023-02-02T23:09:06.993Z,5.14
2023-02-02T23:11:59.750Z,4.90
2023-02-02T23:14:52.579Z,4.61
2023-02-02T23:17:45.475Z,4.32
2023-02-02T23:20:38.442Z,4.24
2023-02-02T23:23:31.270Z,4.17
2023-02-02T23:26:24.475Z,4.08
2023-02-02T23:29:17.384Z,4.25
2023-02-02T23:32:10.334Z,5.19
2023-02-02T23:35:03.546Z,6.06
2023-02-02T23:37:56.423Z,6.57
2023-02-02T23:40:41.547Z,6.80
2023-02-02T23:43:26.931Z,6.61
2023-02-02T23:46:23.145Z,6.76
2023-02-02T23:49:16.320Z,6.89
2023-02-02T23:52:09.961Z,7.00
2023-02-02T23:55:02.846Z,7.23
2023-02-02T23:57:57.841Z,7.21
